createdAt,value
2023-05-23T00:01:46.209Z,14.00
2023-05-23T00:03:49.410Z,14.10
2023-05-23T00:05:52.264Z,14.10
2023-05-23T00:07:55.382Z,14.00
2023-05-23T00:09:58.278Z,13.90
2023-05-23T00:12:00.998Z,13.90
2023-05-23T00:14:03.644Z,13.90
2023-05-23T00:16:09.071Z,14.00
2023-05-23T00:18:11.778Z,14.10
2023-05-23T00:20:14.841Z,14.10
2023-05-23T00:22:17.402Z,14.10
2023-05-23T00:24:19.981Z,14.10
2023-05-23T00:26:23.635Z,14.10
2023-05-23T00:28:26.829Z,14.10
2023-05-23T00:30:30.028Z,14.20
2023-05-23T00:32:33.130Z,14.20
2023-05-23T00:34:37.300Z,14.20
2023-05-23T00:36:41.207Z,14.30
2023-05-23T00:38:45.441Z,14.40
2023-05-23T00:40:48.141Z,14.30
2023-05-23T00:42:50.707Z,14.30
2023-05-23T00:44:53.296Z,14.90
2023-05-23T00:46:56.665Z,14.30
2023-05-23T00:48:59.276Z,14.40
2023-05-23T00:51:02.096Z,14.40
2023-05-23T00:53:04.630Z,14.40
2023-05-23T00:55:08.383Z,14.40
2023-05-23T00:57:11.154Z,14.40
2023-05-23T00:59:14.302Z,14.30
2023-05-23T01:01:17.195Z,14.30
2023-05-23T01:03:20.201Z,14.30
2023-05-23T01:05:24.593Z,14.20
2023-05-23T01:07:40.538Z,14.20
2023-05-23T01:09:43.059Z,14.20
2023-05-23T01:11:47.664Z,14.20
2023-05-23T01:13:53.556Z,14.10
2023-05-23T01:15:59.820Z,14.20
2023-05-23T01:18:04.695Z,14.10
2023-05-23T01:20:09.698Z,14.10
2023-05-23T01:22:14.295Z,14.10
2023-05-23T01:24:22.371Z,14.10
2023-05-23T01:26:32.052Z,14.00
2023-05-23T01:28:36.508Z,14.00
2023-05-23T01:30:40.325Z,14.00
2023-05-23T01:32:43.420Z,13.90
2023-05-23T01:34:47.311Z,13.90
2023-05-23T01:39:06.026Z,13.90
2023-05-23T01:41:10.457Z,13.90
2023-05-23T01:43:13.741Z,13.80
2023-05-23T01:45:17.392Z,13.80
2023-05-23T01:47:20.909Z,13.80
2023-05-23T01:49:24.175Z,13.80
2023-05-23T01:51:28.475Z,13.80
2023-05-23T01:53:32.829Z,13.80
2023-05-23T01:55:35.430Z,13.90
2023-05-23T01:57:38.176Z,13.90
2023-05-23T01:59:41.091Z,13.80
2023-05-23T02:01:43.861Z,13.90
2023-05-23T02:03:46.836Z,13.90
2023-05-23T02:05:49.472Z,13.90
2023-05-23T02:07:52.089Z,13.90
2023-05-23T02:09:55.546Z,13.90
2023-05-23T02:11:59.065Z,13.90
2023-05-23T02:14:02.960Z,13.90
2023-05-23T02:16:06.035Z,13.90
2023-05-23T02:18:08.706Z,13.90
2023-05-23T02:20:14.055Z,13.90
2023-05-23T02:22:16.775Z,13.80
2023-05-23T02:24:19.406Z,13.80
2023-05-23T02:26:24.080Z,13.80
2023-05-23T02:28:26.586Z,13.80
2023-05-23T02:30:29.276Z,13.80
2023-05-23T02:32:31.922Z,13.80
2023-05-23T02:34:34.724Z,13.80
2023-05-23T02:36:38.737Z,13.80
2023-05-23T02:38:41.364Z,13.80
2023-05-23T02:40:44.278Z,13.80
2023-05-23T02:42:46.818Z,13.80
2023-05-23T02:44:49.423Z,13.80
2023-05-23T02:46:52.069Z,13.90
2023-05-23T02:48:54.678Z,13.90
2023-05-23T02:50:57.292Z,13.90
2023-05-23T02:53:00.187Z,13.90
2023-05-23T02:55:02.891Z,13.90
2023-05-23T02:57:06.985Z,13.90
2023-05-23T02:59:11.792Z,13.90
2023-05-23T03:01:14.499Z,13.90
2023-05-23T03:03:17.268Z,13.90
2023-05-23T03:05:20.129Z,14.00
2023-05-23T03:07:28.223Z,13.90
2023-05-23T03:09:27.377Z,14.00
2023-05-23T03:11:30.083Z,13.90
2023-05-23T03:13:32.757Z,13.90
2023-05-23T03:15:35.462Z,14.00
2023-05-23T03:17:38.166Z,14.00
2023-05-23T03:19:41.020Z,14.00
2023-05-23T03:21:44.257Z,14.00
2023-05-23T03:26:03.423Z,14.00
2023-05-23T03:28:06.123Z,14.00
2023-05-23T03:30:10.537Z,14.00
2023-05-23T03:32:13.232Z,14.00
2023-05-23T03:34:16.187Z,14.00
2023-05-23T03:36:18.742Z,14.10
2023-05-23T03:38:21.362Z,14.10
2023-05-23T03:40:23.977Z,14.00
2023-05-23T03:42:27.919Z,14.00
2023-05-23T03:44:30.559Z,14.10
2023-05-23T03:46:33.220Z,14.10
2023-05-23T03:48:36.302Z,11.90
2023-05-23T03:50:39.490Z,14.10
2023-05-23T03:52:42.471Z,14.20
2023-05-23T03:54:46.204Z,14.20
2023-05-23T03:56:48.796Z,14.20
2023-05-23T03:58:51.445Z,14.20
2023-05-23T04:00:54.534Z,14.20
2023-05-23T04:02:57.511Z,14.20
2023-05-23T04:05:01.260Z,14.20
2023-05-23T04:07:05.028Z,14.20
2023-05-23T04:09:08.692Z,14.20
2023-05-23T04:11:13.096Z,14.20
2023-05-23T04:13:17.007Z,14.10
2023-05-23T04:15:21.004Z,14.10
2023-05-23T04:17:25.589Z,14.10
2023-05-23T04:19:28.334Z,14.20
2023-05-23T04:21:31.946Z,14.10
2023-05-23T04:23:37.427Z,14.20
2023-05-23T04:25:40.315Z,14.20
2023-05-23T04:27:44.961Z,14.20
2023-05-23T04:29:47.835Z,14.20
2023-05-23T04:31:50.497Z,14.20
2023-05-23T04:33:53.110Z,14.20
2023-05-23T04:35:57.141Z,14.20
2023-05-23T04:37:59.751Z,14.10
2023-05-23T04:40:04.882Z,14.10
2023-05-23T04:42:09.376Z,14.10
2023-05-23T04:44:14.461Z,14.10
2023-05-23T04:46:21.803Z,14.10
2023-05-23T04:48:27.160Z,14.10
2023-05-23T04:50:32.382Z,14.10
2023-05-23T04:52:35.042Z,14.00
2023-05-23T04:54:39.678Z,14.00
2023-05-23T04:56:42.294Z,14.00
2023-05-23T04:58:45.372Z,14.00
2023-05-23T05:00:49.515Z,14.00
2023-05-23T05:02:53.234Z,14.10
2023-05-23T05:04:55.910Z,14.00
2023-05-23T05:06:58.712Z,14.00
2023-05-23T05:09:01.338Z,14.00
2023-05-23T05:11:04.007Z,14.00
2023-05-23T05:13:06.608Z,14.00
2023-05-23T05:15:12.146Z,14.00
2023-05-23T05:17:15.204Z,14.00
2023-05-23T05:19:19.679Z,14.10
2023-05-23T05:21:22.179Z,14.00
2023-05-23T05:23:25.547Z,14.00
2023-05-23T05:25:30.029Z,14.00
2023-05-23T05:27:32.657Z,14.00
2023-05-23T05:29:36.082Z,14.10
2023-05-23T05:31:40.406Z,14.10
2023-05-23T05:35:58.992Z,14.00
2023-05-23T05:38:04.291Z,14.10
2023-05-23T05:40:08.266Z,14.10
2023-05-23T05:42:12.696Z,14.10
2023-05-23T05:44:15.443Z,14.10
2023-05-23T05:46:18.208Z,14.10
2023-05-23T05:48:20.992Z,14.10
2023-05-23T05:50:24.240Z,14.10
2023-05-23T05:52:27.273Z,14.00
2023-05-23T05:54:30.082Z,14.10
2023-05-23T05:56:32.724Z,14.00
2023-05-23T05:58:35.432Z,14.10
2023-05-23T06:00:41.921Z,14.00
2023-05-23T06:02:46.702Z,14.00
2023-05-23T06:04:50.909Z,14.00
2023-05-23T06:06:53.582Z,14.00
2023-05-23T06:08:56.293Z,14.00
2023-05-23T06:10:58.932Z,14.00
2023-05-23T06:13:02.090Z,14.00
2023-05-23T06:15:07.497Z,14.00
2023-05-23T06:17:10.315Z,14.00
2023-05-23T06:19:16.887Z,13.90
2023-05-23T06:21:26.611Z,13.90
2023-05-23T06:23:29.699Z,13.90
2023-05-23T06:25:35.840Z,13.90
2023-05-23T06:27:39.115Z,13.90
2023-05-23T06:29:41.739Z,13.90
2023-05-23T06:31:44.437Z,13.90
2023-05-23T06:33:47.181Z,13.90
2023-05-23T06:35:49.806Z,13.90
2023-05-23T06:37:52.452Z,13.90
2023-05-23T06:39:55.054Z,13.90
2023-05-23T06:41:57.571Z,13.90
2023-05-23T06:44:00.220Z,13.80
2023-05-23T06:46:04.774Z,13.80
2023-05-23T06:48:07.508Z,13.80
2023-05-23T06:50:12.005Z,13.70
2023-05-23T06:52:14.822Z,13.80
2023-05-23T06:54:18.071Z,13.80
2023-05-23T06:56:22.031Z,13.80
2023-05-23T06:58:26.467Z,13.80
2023-05-23T07:00:29.540Z,13.70
2023-05-23T07:02:34.210Z,13.80
2023-05-23T07:04:38.348Z,13.70
2023-05-23T07:06:42.794Z,13.60
2023-05-23T07:08:46.478Z,13.60
2023-05-23T07:10:49.093Z,13.60
2023-05-23T07:12:53.580Z,13.60
2023-05-23T07:17:13.314Z,13.60
2023-05-23T07:19:16.316Z,13.60
2023-05-23T07:21:20.820Z,13.50
2023-05-23T07:23:24.026Z,13.50
2023-05-23T07:25:27.455Z,13.50
2023-05-23T07:27:30.988Z,13.50
2023-05-23T07:29:34.178Z,13.50
2023-05-23T07:31:37.269Z,13.50
2023-05-23T07:33:40.116Z,13.40
2023-05-23T07:35:44.403Z,13.40
2023-05-23T07:37:48.958Z,13.30
2023-05-23T07:39:51.696Z,13.30
2023-05-23T07:41:54.428Z,13.30
2023-05-23T07:43:57.608Z,13.30
2023-05-23T07:46:00.435Z,13.30
2023-05-23T07:48:03.423Z,13.20
2023-05-23T07:50:08.188Z,13.20
2023-05-23T07:52:10.841Z,13.20
2023-05-23T07:54:16.479Z,13.20
2023-05-23T07:56:18.788Z,13.20
2023-05-23T07:58:22.676Z,13.20
2023-05-23T08:00:25.323Z,13.10
2023-05-23T08:02:29.806Z,13.10
2023-05-23T08:04:33.370Z,13.20
2023-05-23T08:06:39.849Z,13.10
2023-05-23T08:08:44.403Z,13.20
2023-05-23T08:10:47.360Z,13.20
2023-05-23T08:12:51.784Z,13.10
2023-05-23T08:14:54.709Z,13.10
2023-05-23T08:16:59.204Z,13.10
2023-05-23T08:19:02.554Z,13.10
2023-05-23T08:21:05.263Z,13.10
2023-05-23T08:23:08.006Z,13.20
2023-05-23T08:25:10.760Z,13.20
2023-05-23T08:27:15.227Z,13.20
2023-05-23T08:29:18.128Z,13.20
2023-05-23T08:31:21.831Z,13.20
2023-05-23T08:33:24.459Z,13.10
2023-05-23T08:35:30.797Z,13.20
2023-05-23T08:37:33.432Z,13.20
2023-05-23T08:39:36.287Z,13.20
2023-05-23T08:41:41.917Z,13.20
2023-05-23T08:43:46.746Z,13.10
2023-05-23T08:45:51.965Z,13.20
2023-05-23T08:47:55.785Z,13.20
2023-05-23T08:49:59.490Z,13.10
2023-05-23T08:52:03.476Z,13.10
2023-05-23T08:54:08.693Z,13.10
2023-05-23T08:56:11.496Z,13.00
2023-05-23T08:58:16.071Z,13.00
2023-05-23T09:00:21.930Z,12.90
2023-05-23T09:02:25.286Z,12.90
2023-05-23T09:04:31.606Z,12.90
2023-05-23T09:06:36.297Z,12.90
2023-05-23T09:08:40.075Z,12.90
2023-05-23T09:10:44.337Z,12.90
2023-05-23T09:12:47.244Z,13.00
2023-05-23T09:17:05.603Z,12.90
2023-05-23T09:19:11.833Z,12.90
2023-05-23T09:21:15.273Z,12.90
2023-05-23T09:23:19.852Z,12.90
2023-05-23T09:25:22.772Z,12.90
2023-05-23T09:27:25.405Z,12.90
2023-05-23T09:29:28.742Z,12.90
2023-05-23T09:31:31.931Z,12.90
2023-05-23T09:35:52.710Z,12.70
2023-05-23T09:37:58.115Z,12.70
2023-05-23T09:40:01.811Z,12.70
2023-05-23T09:42:05.762Z,12.60
2023-05-23T09:44:09.402Z,12.60
2023-05-23T09:46:12.082Z,12.50
2023-05-23T09:48:14.760Z,12.50
2023-05-23T09:50:18.054Z,12.40
2023-05-23T09:52:20.972Z,12.30
2023-05-23T09:56:43.208Z,12.40
2023-05-23T09:58:46.939Z,12.40
2023-05-23T10:00:51.664Z,12.40
2023-05-23T10:02:55.379Z,12.40
2023-05-23T10:04:58.183Z,12.40
2023-05-23T10:07:02.753Z,12.40
2023-05-23T10:09:06.146Z,12.40
2023-05-23T10:11:36.929Z,12.50
2023-05-23T10:13:41.302Z,12.60
2023-05-23T10:15:43.796Z,12.70
2023-05-23T10:17:49.529Z,12.60
2023-05-23T10:19:54.742Z,12.60
2023-05-23T10:21:59.384Z,12.50
2023-05-23T10:24:03.539Z,12.50
2023-05-23T10:26:06.283Z,12.40
2023-05-23T10:28:09.008Z,12.30
2023-05-23T10:30:12.769Z,12.30
2023-05-23T10:32:15.918Z,12.30
2023-05-23T10:34:21.902Z,12.30
2023-05-23T10:36:27.276Z,12.30
2023-05-23T10:38:33.264Z,12.30
2023-05-23T10:40:40.051Z,12.20
2023-05-23T10:42:45.252Z,12.20
2023-05-23T10:44:47.987Z,12.30
2023-05-23T10:46:52.120Z,12.30
2023-05-23T10:48:56.736Z,12.20
2023-05-23T10:51:03.689Z,12.20
2023-05-23T10:53:06.220Z,12.10
2023-05-23T10:55:13.995Z,12.20
2023-05-23T10:57:17.077Z,12.20
2023-05-23T10:59:22.635Z,12.30
2023-05-23T11:01:26.704Z,12.40
2023-05-23T11:03:34.768Z,12.50
2023-05-23T11:05:39.374Z,12.70
2023-05-23T11:07:42.550Z,12.90
2023-05-23T11:10:04.034Z,13.10
2023-05-23T11:12:07.600Z,13.30
2023-05-23T11:14:10.122Z,13.50
2023-05-23T11:18:42.492Z,14.00
2023-05-23T11:20:47.144Z,14.10
2023-05-23T11:22:57.531Z,14.10
2023-05-23T11:25:00.674Z,14.10
2023-05-23T11:27:03.704Z,14.00
2023-05-23T11:29:09.518Z,14.00
2023-05-23T11:31:12.058Z,13.80
2023-05-23T11:33:15.878Z,13.70
2023-05-23T11:35:18.763Z,13.60
2023-05-23T11:37:24.388Z,13.50
2023-05-23T11:39:27.657Z,13.50
2023-05-23T11:41:30.920Z,13.40
2023-05-23T11:43:33.473Z,13.40
2023-05-23T11:45:36.638Z,13.30
2023-05-23T11:47:41.413Z,13.40
2023-05-23T11:49:45.146Z,13.50
2023-05-23T11:51:47.673Z,13.60
2023-05-23T11:53:50.318Z,13.70
2023-05-23T11:55:54.497Z,13.60
2023-05-23T11:57:57.707Z,13.60
2023-05-23T12:00:00.246Z,13.60
2023-05-23T12:02:03.324Z,13.50
2023-05-23T12:04:11.815Z,13.70
2023-05-23T12:06:16.035Z,13.70
2023-05-23T12:08:18.684Z,13.70
2023-05-23T12:10:22.154Z,13.80
2023-05-23T12:12:25.021Z,13.80
2023-05-23T12:14:28.697Z,13.80
2023-05-23T12:16:31.244Z,13.80
2023-05-23T12:18:35.423Z,13.70
2023-05-23T12:20:37.991Z,13.90
2023-05-23T12:22:41.643Z,13.90
2023-05-23T12:24:47.410Z,13.90
2023-05-23T12:26:50.686Z,14.10
2023-05-23T12:28:53.253Z,14.20
2023-05-23T12:30:57.300Z,14.30
2023-05-23T12:32:59.920Z,14.40
2023-05-23T12:35:04.169Z,14.40
2023-05-23T12:37:19.120Z,14.40
2023-05-23T12:39:12.899Z,14.30
2023-05-23T12:41:16.791Z,14.30
2023-05-23T12:43:19.329Z,14.30
2023-05-23T12:45:22.612Z,14.10
2023-05-23T12:47:25.624Z,14.00
2023-05-23T12:49:28.148Z,14.00
2023-05-23T12:51:31.313Z,14.10
2023-05-23T12:53:33.892Z,14.60
2023-05-23T12:55:36.466Z,14.90
2023-05-23T12:57:39.198Z,15.30
2023-05-23T12:59:41.769Z,15.50
2023-05-23T13:01:44.269Z,15.50
2023-05-23T13:03:46.831Z,15.60
2023-05-23T13:05:49.405Z,15.60
2023-05-23T13:07:51.930Z,15.70
2023-05-23T13:09:54.955Z,15.60
2023-05-23T13:11:58.415Z,15.60
2023-05-23T13:14:00.955Z,15.40
2023-05-23T13:16:03.520Z,15.30
2023-05-23T13:18:06.350Z,15.00
2023-05-23T13:20:11.204Z,15.00
2023-05-23T13:22:13.727Z,14.80
2023-05-23T13:24:16.397Z,14.80
2023-05-23T13:26:19.401Z,14.80
2023-05-23T13:28:21.962Z,14.90
2023-05-23T13:32:39.839Z,15.30
2023-05-23T13:34:42.622Z,15.50
2023-05-23T13:36:45.173Z,15.60
2023-05-23T13:38:50.180Z,15.50
2023-05-23T13:40:54.069Z,15.50
2023-05-23T13:42:56.932Z,15.50
2023-05-23T13:44:59.488Z,15.50
2023-05-23T13:47:12.791Z,15.50
2023-05-23T13:49:15.703Z,15.50
2023-05-23T13:51:18.375Z,15.40
2023-05-23T13:53:44.122Z,15.50
2023-05-23T13:55:48.538Z,15.30
2023-05-23T13:57:51.070Z,15.40
2023-05-23T13:59:53.773Z,15.50
2023-05-23T14:01:56.386Z,15.70
2023-05-23T14:03:58.964Z,16.00
2023-05-23T14:06:01.710Z,16.10
2023-05-23T14:08:04.698Z,16.20
2023-05-23T14:10:08.659Z,16.20
2023-05-23T14:12:11.210Z,16.10
2023-05-23T14:14:13.866Z,16.00
2023-05-23T14:16:16.534Z,15.90
2023-05-23T14:18:19.327Z,15.90
2023-05-23T14:20:35.459Z,16.10
2023-05-23T14:22:38.133Z,16.40
2023-05-23T14:24:40.668Z,16.60
2023-05-23T14:26:43.216Z,17.00
2023-05-23T14:28:45.716Z,17.30
2023-05-23T14:30:48.283Z,17.40
2023-05-23T14:32:51.015Z,17.50
2023-05-23T14:34:53.543Z,17.40
2023-05-23T14:36:56.165Z,17.00
2023-05-23T14:38:58.728Z,16.70
2023-05-23T14:41:01.336Z,16.80
2023-05-23T14:43:12.313Z,16.70
2023-05-23T14:45:17.841Z,16.60
2023-05-23T14:47:19.396Z,16.40
2023-05-23T14:49:21.904Z,16.70
2023-05-23T14:51:35.511Z,16.80
2023-05-23T14:53:28.919Z,16.80
2023-05-23T14:55:31.462Z,16.50
2023-05-23T14:57:34.002Z,16.30
2023-05-23T14:59:36.659Z,16.20
2023-05-23T15:01:40.475Z,16.30
2023-05-23T15:03:43.617Z,16.50
2023-05-23T15:05:48.650Z,16.30
2023-05-23T15:07:50.585Z,16.20
2023-05-23T15:09:53.112Z,16.20
2023-05-23T15:11:55.713Z,16.30
2023-05-23T15:13:59.064Z,16.70
2023-05-23T15:16:02.547Z,16.60
2023-05-23T15:18:11.203Z,16.60
2023-05-23T15:20:13.786Z,16.60
2023-05-23T15:22:34.088Z,16.30
2023-05-23T15:24:20.716Z,15.90
2023-05-23T15:26:23.272Z,15.80
2023-05-23T15:28:25.833Z,15.50
2023-05-23T15:30:28.463Z,15.60
2023-05-23T15:32:31.135Z,15.40
2023-05-23T15:36:52.728Z,15.30
2023-05-23T15:38:55.329Z,15.50
2023-05-23T15:40:58.861Z,15.90
2023-05-23T15:43:01.411Z,16.10
2023-05-23T15:45:05.202Z,16.20
2023-05-23T15:47:07.863Z,16.30
2023-05-23T15:49:21.608Z,16.20
2023-05-23T15:51:15.515Z,16.00
2023-05-23T15:53:18.082Z,15.70
2023-05-23T15:55:20.740Z,15.50
2023-05-23T15:57:23.308Z,15.30
2023-05-23T15:59:25.865Z,15.20
2023-05-23T16:01:28.758Z,15.00
2023-05-23T16:03:31.540Z,14.90
2023-05-23T16:05:34.096Z,14.90
2023-05-23T16:07:36.639Z,14.90
2023-05-23T16:09:39.207Z,14.90
2023-05-23T16:11:41.828Z,14.90
2023-05-23T16:13:44.436Z,14.90
2023-05-23T16:15:46.995Z,14.90
2023-05-23T16:17:49.827Z,15.10
2023-05-23T16:19:52.469Z,15.50
2023-05-23T16:21:55.103Z,15.40
2023-05-23T16:23:57.775Z,15.40
2023-05-23T16:26:00.315Z,15.50
2023-05-23T16:28:02.870Z,15.60
2023-05-23T16:30:06.908Z,15.70
2023-05-23T16:32:09.603Z,15.80
2023-05-23T16:34:12.593Z,15.80
2023-05-23T16:36:16.363Z,15.80
2023-05-23T16:38:19.377Z,15.80
2023-05-23T16:40:21.972Z,15.90
2023-05-23T16:42:24.570Z,15.90
2023-05-23T16:46:42.237Z,16.10
2023-05-23T16:48:45.355Z,16.00
2023-05-23T16:50:47.881Z,16.10
2023-05-23T16:52:50.404Z,16.10
2023-05-23T16:54:54.761Z,16.20
2023-05-23T16:56:59.373Z,16.30
2023-05-23T16:59:01.909Z,16.50
2023-05-23T17:01:04.523Z,16.40
2023-05-23T17:03:07.162Z,16.10
2023-05-23T17:05:09.787Z,16.00
2023-05-23T17:07:12.477Z,16.10
2023-05-23T17:11:29.792Z,16.00
2023-05-23T17:13:32.583Z,15.90
2023-05-23T17:15:35.262Z,15.70
2023-05-23T17:17:37.855Z,15.70
2023-05-23T17:19:42.027Z,15.50
2023-05-23T17:21:44.648Z,15.60
2023-05-23T17:23:47.336Z,15.70
2023-05-23T17:25:50.010Z,15.80
2023-05-23T17:27:53.038Z,15.80
2023-05-23T17:29:56.554Z,15.90
2023-05-23T17:31:59.229Z,15.90
2023-05-23T17:34:01.927Z,15.80
2023-05-23T17:36:04.845Z,15.70
2023-05-23T17:38:07.386Z,15.70
2023-05-23T17:40:10.946Z,15.60
2023-05-23T17:42:14.010Z,15.70
2023-05-23T17:44:16.532Z,15.70
2023-05-23T17:46:19.116Z,15.50
2023-05-23T17:48:28.338Z,15.50
2023-05-23T17:50:26.101Z,15.40
2023-05-23T17:52:28.708Z,15.50
2023-05-23T17:54:31.388Z,15.50
2023-05-23T17:56:33.905Z,15.50
2023-05-23T17:58:37.000Z,15.40
2023-05-23T18:00:39.685Z,15.00
2023-05-23T18:02:42.570Z,14.80
2023-05-23T18:04:46.041Z,14.70
2023-05-23T18:06:48.638Z,14.70
2023-05-23T18:08:51.215Z,14.70
2023-05-23T18:10:53.766Z,14.70
2023-05-23T18:12:56.318Z,14.70
2023-05-23T18:14:58.834Z,14.60
2023-05-23T18:17:01.430Z,14.50
2023-05-23T18:19:04.994Z,14.50
2023-05-23T18:21:08.113Z,14.50
2023-05-23T18:23:11.328Z,14.50
2023-05-23T18:25:16.468Z,14.50
2023-05-23T18:27:19.004Z,14.50
2023-05-23T18:29:21.838Z,14.50
2023-05-23T18:31:24.374Z,14.40
2023-05-23T18:33:27.412Z,14.30
2023-05-23T18:35:30.549Z,14.20
2023-05-23T18:37:33.045Z,14.20
2023-05-23T18:39:35.901Z,14.10
2023-05-23T18:41:38.484Z,14.00
2023-05-23T18:43:41.031Z,13.80
2023-05-23T18:45:43.751Z,13.70
2023-05-23T18:47:47.037Z,13.50
2023-05-23T18:49:49.713Z,13.50
2023-05-23T18:51:53.877Z,13.30
2023-05-23T18:53:56.403Z,13.20
2023-05-23T18:55:58.913Z,13.10
2023-05-23T18:58:01.908Z,13.00
2023-05-23T19:00:05.154Z,12.90
2023-05-23T19:02:08.158Z,12.80
2023-05-23T19:04:10.795Z,12.70
2023-05-23T19:06:13.498Z,12.60
2023-05-23T19:08:17.212Z,12.50
2023-05-23T19:10:25.914Z,12.50
2023-05-23T19:12:28.703Z,12.40
2023-05-23T19:14:31.777Z,12.30
2023-05-23T19:16:35.656Z,12.30
2023-05-23T19:18:38.656Z,12.30
2023-05-23T19:20:42.561Z,12.20
2023-05-23T19:22:52.257Z,12.10
2023-05-23T19:24:57.596Z,12.10
2023-05-23T19:27:01.452Z,12.00
2023-05-23T19:29:04.287Z,12.00
2023-05-23T19:31:10.557Z,12.00
2023-05-23T19:33:14.080Z,11.90
2023-05-23T19:35:17.371Z,11.90
2023-05-23T19:37:21.803Z,11.70
2023-05-23T19:39:24.655Z,11.70
2023-05-23T19:41:27.874Z,11.60
2023-05-23T19:43:30.975Z,11.50
2023-05-23T19:45:37.355Z,11.40
2023-05-23T19:47:42.585Z,11.60
2023-05-23T19:49:45.156Z,11.30
2023-05-23T19:51:48.409Z,11.20
2023-05-23T19:53:51.078Z,11.10
2023-05-23T19:55:58.436Z,11.10
2023-05-23T19:58:01.163Z,11.10
2023-05-23T20:00:07.698Z,11.00
2023-05-23T20:02:11.318Z,10.90
2023-05-23T20:04:13.918Z,10.90
2023-05-23T20:06:16.822Z,10.80
2023-05-23T20:08:19.701Z,10.70
2023-05-23T20:10:22.637Z,10.70
2023-05-23T20:12:25.317Z,10.70
2023-05-23T20:14:29.407Z,10.70
2023-05-23T20:16:33.125Z,10.60
2023-05-23T20:18:36.005Z,10.60
2023-05-23T20:20:38.573Z,10.50
2023-05-23T20:22:41.123Z,10.50
2023-05-23T20:24:43.795Z,10.50
2023-05-23T20:26:46.310Z,10.40
2023-05-23T20:28:48.854Z,10.30
2023-05-23T20:30:51.446Z,10.20
2023-05-23T20:32:54.412Z,10.30
2023-05-23T20:34:57.181Z,10.20
2023-05-23T20:37:01.171Z,10.20
2023-05-23T20:39:05.079Z,10.20
2023-05-23T20:41:07.801Z,10.20
2023-05-23T20:43:10.331Z,10.10
2023-05-23T20:45:13.311Z,10.10
2023-05-23T20:47:16.960Z,10.10
2023-05-23T20:51:36.711Z,10.00
2023-05-23T20:53:39.286Z,9.90
2023-05-23T20:55:42.130Z,9.90
2023-05-23T20:57:45.786Z,9.90
2023-05-23T20:59:48.894Z,9.90
2023-05-23T21:01:51.743Z,9.80
2023-05-23T21:03:54.282Z,9.80
2023-05-23T21:05:56.787Z,9.70
2023-05-23T21:07:59.328Z,9.70
2023-05-23T21:10:01.974Z,9.70
2023-05-23T21:12:05.327Z,9.60
2023-05-23T21:14:07.881Z,9.60
2023-05-23T21:16:13.268Z,9.50
2023-05-23T21:20:31.498Z,9.40
2023-05-23T21:22:34.031Z,9.40
2023-05-23T21:24:36.559Z,9.30
2023-05-23T21:26:39.101Z,9.40
2023-05-23T21:28:41.618Z,9.30
2023-05-23T21:30:45.039Z,9.20
2023-05-23T21:32:48.425Z,9.30
2023-05-23T21:34:51.306Z,9.20
2023-05-23T21:36:53.927Z,9.20
2023-05-23T21:38:56.528Z,9.20
2023-05-23T21:40:59.103Z,9.10
2023-05-23T21:43:01.788Z,9.10
2023-05-23T21:45:05.296Z,9.10
2023-05-23T21:47:07.922Z,9.10
2023-05-23T21:49:10.433Z,9.00
2023-05-23T21:51:12.975Z,9.00
2023-05-23T21:53:15.636Z,8.90
2023-05-23T21:55:18.198Z,8.90
2023-05-23T21:57:20.717Z,8.90
2023-05-23T21:59:23.669Z,8.80
2023-05-23T22:01:26.697Z,8.80
2023-05-23T22:03:29.362Z,8.80
2023-05-23T22:05:32.018Z,8.70
2023-05-23T22:07:34.542Z,8.70
2023-05-23T22:09:37.051Z,8.70
2023-05-23T22:11:39.892Z,8.70
2023-05-23T22:13:42.447Z,8.70
2023-05-23T22:15:45.064Z,8.70
2023-05-23T22:17:47.652Z,8.60
2023-05-23T22:19:51.214Z,8.60
2023-05-23T22:21:53.834Z,8.60
2023-05-23T22:23:57.199Z,8.60
2023-05-23T22:25:59.706Z,8.60
2023-05-23T22:28:02.329Z,8.60
2023-05-23T22:30:06.056Z,8.60
2023-05-23T22:32:08.643Z,8.50
2023-05-23T22:34:11.253Z,8.50
2023-05-23T22:36:13.928Z,8.50
2023-05-23T22:38:17.114Z,8.50
2023-05-23T22:40:20.908Z,8.50
2023-05-23T22:42:27.980Z,8.50
2023-05-23T22:44:33.600Z,8.40
2023-05-23T22:46:38.217Z,8.40
2023-05-23T22:48:40.844Z,8.20
2023-05-23T22:50:44.014Z,8.20
2023-05-23T22:52:48.000Z,8.20
2023-05-23T22:54:51.064Z,8.10
2023-05-23T22:56:55.190Z,8.10
2023-05-23T22:58:57.781Z,8.00
2023-05-23T23:01:00.694Z,8.00
2023-05-23T23:03:03.725Z,7.90
2023-05-23T23:05:10.830Z,7.90
2023-05-23T23:07:13.485Z,7.80
2023-05-23T23:09:16.683Z,7.90
2023-05-23T23:11:19.504Z,7.80
2023-05-23T23:15:37.114Z,7.70
2023-05-23T23:17:40.066Z,7.70
2023-05-23T23:19:43.602Z,7.70
2023-05-23T23:21:46.122Z,7.70
2023-05-23T23:23:49.274Z,7.70
2023-05-23T23:25:51.835Z,7.60
2023-05-23T23:27:54.386Z,7.60
2023-05-23T23:29:57.273Z,7.60
2023-05-23T23:31:59.847Z,7.50
2023-05-23T23:34:02.859Z,7.60
2023-05-23T23:36:06.184Z,7.50
2023-05-23T23:38:08.877Z,7.50
2023-05-23T23:40:12.443Z,7.50
2023-05-23T23:42:15.631Z,7.40
2023-05-23T23:44:18.166Z,7.40
2023-05-23T23:46:20.766Z,7.40
2023-05-23T23:48:23.556Z,7.40
2023-05-23T23:50:43.407Z,7.40
2023-05-23T23:52:48.747Z,7.30
2023-05-23T23:54:54.699Z,7.40
2023-05-23T23:56:59.954Z,7.30
2023-05-23T23:59:05.432Z,7.30
